createdAt,value
2024-02-08T00:01:23.370Z,25.06
2024-02-08T00:04:11.138Z,25.25
2024-02-08T00:06:58.831Z,25.15
2024-02-08T00:09:46.607Z,25.20
2024-02-08T00:12:34.256Z,25.12
2024-02-08T00:15:21.977Z,25.25
2024-02-08T00:18:09.918Z,25.22
2024-02-08T00:20:57.654Z,25.13
2024-02-08T00:23:45.344Z,25.17
2024-02-08T00:26:33.070Z,25.09
2024-02-08T00:29:20.777Z,25.16
2024-02-08T00:32:09.234Z,24.58
2024-02-08T00:34:57.180Z,24.60
2024-02-08T00:37:51.279Z,24.91
2024-02-08T00:40:39.584Z,24.97
2024-02-08T00:43:27.258Z,24.82
2024-02-08T00:46:14.877Z,24.92
2024-02-08T00:49:02.614Z,24.96
2024-02-08T00:51:50.452Z,24.94
2024-02-08T00:54:38.228Z,24.86
2024-02-08T00:57:25.918Z,24.90
2024-02-08T01:00:14.085Z,24.91
2024-02-08T01:03:01.791Z,25.06
2024-02-08T01:05:52.847Z,24.67
2024-02-08T01:08:40.561Z,24.86
2024-02-08T01:11:28.302Z,24.94
2024-02-08T01:14:16.115Z,24.80
2024-02-08T01:17:06.457Z,24.67
2024-02-08T01:19:54.230Z,24.56
2024-02-08T01:22:43.237Z,24.93
2024-02-08T01:25:31.058Z,25.32
2024-02-08T01:28:18.746Z,24.80
2024-02-08T01:31:06.385Z,24.62
2024-02-08T01:33:53.947Z,24.83
2024-02-08T01:36:41.701Z,24.67
2024-02-08T01:39:29.405Z,24.48
2024-02-08T01:42:17.628Z,25.01
2024-02-08T01:45:26.125Z,24.04
2024-02-08T01:48:17.873Z,24.22
2024-02-08T01:51:06.232Z,24.67
2024-02-08T01:53:53.936Z,24.76
2024-02-08T01:56:45.844Z,24.14
2024-02-08T01:59:33.596Z,24.38
2024-02-08T02:02:23.492Z,24.63
2024-02-08T02:05:18.698Z,24.94
2024-02-08T02:08:07.172Z,24.98
2024-02-08T02:11:12.336Z,24.91
2024-02-08T02:14:00.336Z,25.18
2024-02-08T02:16:52.462Z,24.88
2024-02-08T02:19:41.426Z,24.70
2024-02-08T02:22:33.351Z,24.98
2024-02-08T02:25:20.972Z,25.06
2024-02-08T02:28:11.456Z,24.87
2024-02-08T02:30:59.648Z,24.89
2024-02-08T02:33:48.340Z,24.65
2024-02-08T02:36:36.245Z,24.87
2024-02-08T02:39:27.223Z,24.90
2024-02-08T02:42:15.946Z,24.89
2024-02-08T02:45:03.714Z,24.97
2024-02-08T02:47:54.937Z,24.37
2024-02-08T02:50:43.716Z,24.45
2024-02-08T02:53:31.903Z,24.17
2024-02-08T02:56:21.045Z,24.14
2024-02-08T02:59:08.923Z,24.08
2024-02-08T03:01:57.303Z,24.33
2024-02-08T03:04:45.066Z,24.29
2024-02-08T03:07:33.023Z,24.29
2024-02-08T03:10:22.539Z,24.38
2024-02-08T03:13:11.865Z,24.33
2024-02-08T03:15:59.593Z,24.66
2024-02-08T03:18:50.446Z,23.93
2024-02-08T03:21:41.489Z,23.43
2024-02-08T03:24:37.328Z,23.59
2024-02-08T03:27:25.980Z,23.70
2024-02-08T03:30:20.771Z,23.99
2024-02-08T03:33:17.220Z,23.36
2024-02-08T03:36:08.189Z,22.96
2024-02-08T03:38:56.132Z,23.74
2024-02-08T03:41:43.775Z,23.73
2024-02-08T03:44:31.973Z,23.58
2024-02-08T03:47:20.220Z,23.94
2024-02-08T03:50:08.162Z,23.87
2024-02-08T03:52:55.969Z,24.22
2024-02-08T03:55:45.502Z,23.66
2024-02-08T03:58:33.584Z,23.71
2024-02-08T04:01:22.651Z,24.28
2024-02-08T04:04:14.651Z,23.72
2024-02-08T04:07:23.895Z,24.28
2024-02-08T04:10:20.041Z,24.10
2024-02-08T04:13:26.392Z,24.33
2024-02-08T04:16:32.531Z,23.72
2024-02-08T04:19:39.167Z,24.39
2024-02-08T04:22:45.552Z,24.29
2024-02-08T04:25:51.724Z,24.47
2024-02-08T04:28:58.246Z,24.40
2024-02-08T04:32:07.781Z,24.35
2024-02-08T04:35:14.371Z,24.60
2024-02-08T04:38:20.685Z,24.54
2024-02-08T04:41:27.240Z,24.49
2024-02-08T04:44:33.745Z,24.39
2024-02-08T04:47:40.092Z,24.34
2024-02-08T04:50:46.562Z,24.31
2024-02-08T04:53:46.603Z,24.55
2024-02-08T04:56:34.285Z,24.49
2024-02-08T04:59:23.671Z,24.57
2024-02-08T05:02:12.138Z,24.33
2024-02-08T05:04:59.909Z,24.36
2024-02-08T05:07:50.213Z,24.43
2024-02-08T05:10:38.020Z,24.33
2024-02-08T05:13:27.118Z,24.48
2024-02-08T05:16:17.914Z,24.47
2024-02-08T05:19:05.854Z,24.17
2024-02-08T05:22:00.544Z,24.47
2024-02-08T05:24:48.609Z,24.44
2024-02-08T05:27:36.260Z,24.51
2024-02-08T05:30:24.099Z,24.35
2024-02-08T05:33:16.711Z,24.50
2024-02-08T05:36:08.413Z,24.50
2024-02-08T05:38:58.052Z,24.52
2024-02-08T05:41:46.228Z,24.45
2024-02-08T05:44:34.361Z,24.32
2024-02-08T05:47:27.625Z,24.47
2024-02-08T05:50:25.910Z,24.49
2024-02-08T05:53:17.109Z,24.51
2024-02-08T05:56:09.439Z,24.44
2024-02-08T05:59:02.582Z,24.46
2024-02-08T06:01:51.869Z,24.37
2024-02-08T06:04:42.414Z,24.38
2024-02-08T06:07:32.497Z,24.50
2024-02-08T06:10:24.135Z,24.55
2024-02-08T06:13:16.853Z,24.60
2024-02-08T06:16:16.196Z,24.59
2024-02-08T06:19:04.274Z,24.68
2024-02-08T06:22:09.532Z,24.65
2024-02-08T06:25:10.010Z,24.61
2024-02-08T06:27:59.393Z,24.71
2024-02-08T06:30:49.661Z,24.85
2024-02-08T06:33:56.564Z,24.73
2024-02-08T06:37:00.289Z,24.71
2024-02-08T06:39:57.687Z,24.57
2024-02-08T06:43:05.931Z,24.71
2024-02-08T06:45:54.560Z,24.70
2024-02-08T06:48:42.692Z,24.68
2024-02-08T06:51:49.288Z,24.91
2024-02-08T06:54:55.390Z,24.76
2024-02-08T06:58:02.121Z,24.81
2024-02-08T07:01:08.599Z,24.80
2024-02-08T07:04:14.764Z,24.97
2024-02-08T07:07:21.513Z,24.89
2024-02-08T07:10:27.777Z,24.93
2024-02-08T07:13:34.205Z,24.98
2024-02-08T07:16:40.397Z,24.73
2024-02-08T07:19:46.964Z,24.86
2024-02-08T07:22:53.316Z,24.82
2024-02-08T07:25:59.917Z,24.63
2024-02-08T07:29:06.282Z,24.79
2024-02-08T07:32:12.916Z,24.73
2024-02-08T07:35:20.258Z,24.91
2024-02-08T07:38:09.002Z,24.98
2024-02-08T07:40:56.901Z,24.98
2024-02-08T07:43:51.950Z,25.17
2024-02-08T07:46:41.560Z,25.04
2024-02-08T07:49:46.010Z,24.91
2024-02-08T07:52:47.641Z,25.12
2024-02-08T07:55:35.926Z,24.96
2024-02-08T07:58:28.513Z,25.10
2024-02-08T08:01:19.897Z,25.24
2024-02-08T08:04:10.985Z,25.08
2024-02-08T08:07:02.194Z,24.99
2024-02-08T08:10:08.729Z,25.06
2024-02-08T08:12:56.935Z,25.15
2024-02-08T08:16:10.654Z,25.05
2024-02-08T08:18:59.166Z,25.27
2024-02-08T08:21:59.239Z,25.11
2024-02-08T08:25:10.339Z,25.21
2024-02-08T08:28:31.504Z,25.20
2024-02-08T08:31:52.582Z,25.26
2024-02-08T08:34:59.853Z,25.35
2024-02-08T08:37:47.657Z,25.19
2024-02-08T08:40:42.085Z,25.41
2024-02-08T08:43:33.347Z,25.34
2024-02-08T08:46:22.515Z,25.29
2024-02-08T08:49:15.638Z,25.29
2024-02-08T08:52:05.914Z,25.54
2024-02-08T08:55:13.049Z,25.42
2024-02-08T08:58:05.072Z,25.43
2024-02-08T09:01:15.048Z,25.52
2024-02-08T09:04:24.253Z,25.49
2024-02-08T09:07:13.197Z,25.50
2024-02-08T09:10:05.376Z,25.72
2024-02-08T09:13:08.086Z,25.51
2024-02-08T09:15:57.755Z,25.67
2024-02-08T09:19:01.136Z,25.85
2024-02-08T09:21:51.301Z,25.72
2024-02-08T09:24:43.688Z,25.81
2024-02-08T09:27:35.513Z,25.80
2024-02-08T09:30:39.742Z,25.67
2024-02-08T09:33:54.031Z,25.89
2024-02-08T09:36:44.012Z,25.70
2024-02-08T09:39:51.588Z,25.76
2024-02-08T09:42:39.566Z,25.70
2024-02-08T09:45:34.210Z,25.95
2024-02-08T09:48:38.199Z,25.86
2024-02-08T09:51:26.247Z,25.96
2024-02-08T09:54:17.211Z,25.57
2024-02-08T09:57:24.211Z,25.68
2024-02-08T10:00:32.202Z,25.66
2024-02-08T10:03:33.653Z,25.76
2024-02-08T10:06:26.103Z,25.77
2024-02-08T10:09:33.464Z,25.66
2024-02-08T10:12:32.039Z,25.80
2024-02-08T10:15:27.308Z,25.95
2024-02-08T10:18:24.515Z,25.71
2024-02-08T10:21:18.967Z,25.79
2024-02-08T10:24:25.124Z,25.71
2024-02-08T10:27:22.318Z,25.73
2024-02-08T10:30:10.952Z,25.67
2024-02-08T10:33:00.156Z,25.65
2024-02-08T10:35:49.195Z,25.65
2024-02-08T10:38:56.278Z,25.83
2024-02-08T10:41:58.877Z,25.86
2024-02-08T10:44:47.198Z,25.65
2024-02-08T10:47:42.092Z,25.53
2024-02-08T10:50:32.557Z,25.58
2024-02-08T10:53:41.085Z,25.75
2024-02-08T10:56:42.446Z,25.51
2024-02-08T10:59:53.276Z,25.61
2024-02-08T11:03:01.752Z,25.65
2024-02-08T11:06:02.290Z,25.78
2024-02-08T11:08:52.257Z,26.13
2024-02-08T11:11:42.150Z,25.90
2024-02-08T11:14:30.706Z,25.80
2024-02-08T11:17:23.398Z,25.77
2024-02-08T11:20:18.563Z,25.97
2024-02-08T11:23:10.913Z,25.87
2024-02-08T11:26:07.834Z,25.53
2024-02-08T11:29:06.417Z,25.52
2024-02-08T11:31:57.251Z,25.54
2024-02-08T11:34:47.119Z,25.54
2024-02-08T11:37:39.548Z,25.39
2024-02-08T11:40:30.847Z,25.46
2024-02-08T11:43:21.223Z,25.55
2024-02-08T11:46:19.723Z,25.30
2024-02-08T11:49:16.691Z,25.65
2024-02-08T11:52:08.587Z,25.77
2024-02-08T11:55:15.812Z,25.55
2024-02-08T11:58:11.329Z,25.54
2024-02-08T12:00:59.840Z,25.66
2024-02-08T12:03:51.167Z,25.47
2024-02-08T12:06:47.758Z,25.54
2024-02-08T12:09:39.872Z,25.57
2024-02-08T12:12:27.499Z,25.43
2024-02-08T12:15:17.852Z,25.42
2024-02-08T12:18:07.930Z,25.65
2024-02-08T12:21:03.256Z,25.47
2024-02-08T12:23:54.721Z,25.47
2024-02-08T12:26:43.561Z,25.53
2024-02-08T12:29:31.362Z,25.67
2024-02-08T12:32:19.477Z,25.53
2024-02-08T12:35:15.253Z,25.57
2024-02-08T12:38:04.454Z,25.57
2024-02-08T12:40:52.317Z,25.69
2024-02-08T12:43:44.069Z,25.74
2024-02-08T12:46:32.854Z,25.74
2024-02-08T12:49:20.831Z,25.74
2024-02-08T12:52:11.028Z,25.86
2024-02-08T12:55:01.836Z,25.82
2024-02-08T12:58:04.293Z,25.90
2024-02-08T13:00:57.959Z,25.95
2024-02-08T13:03:45.656Z,25.86
2024-02-08T13:06:33.684Z,25.88
2024-02-08T13:09:28.524Z,26.09
2024-02-08T13:12:18.836Z,26.03
2024-02-08T13:15:11.238Z,25.83
2024-02-08T13:17:59.146Z,26.07
2024-02-08T13:20:48.821Z,26.22
2024-02-08T13:23:38.212Z,26.12
2024-02-08T13:26:33.102Z,25.87
2024-02-08T13:29:27.565Z,26.28
2024-02-08T13:32:17.451Z,26.26
2024-02-08T13:35:05.398Z,26.19
2024-02-08T13:37:55.156Z,26.19
2024-02-08T13:40:48.770Z,26.14
2024-02-08T13:43:40.439Z,26.15
2024-02-08T13:46:31.887Z,26.18
2024-02-08T13:49:23.007Z,26.06
2024-02-08T13:52:11.236Z,26.16
2024-02-08T13:55:00.077Z,26.09
2024-02-08T13:57:54.130Z,25.79
2024-02-08T14:00:43.117Z,25.59
2024-02-08T14:03:31.961Z,25.60
2024-02-08T14:06:27.325Z,25.53
2024-02-08T14:09:22.140Z,25.86
2024-02-08T14:12:09.871Z,25.76
2024-02-08T14:14:59.370Z,25.92
2024-02-08T14:17:55.599Z,26.13
2024-02-08T14:20:53.909Z,26.17
2024-02-08T14:23:50.270Z,25.38
2024-02-08T14:26:44.786Z,25.81
2024-02-08T14:29:36.417Z,26.17
2024-02-08T14:32:28.701Z,26.14
2024-02-08T14:35:23.467Z,25.90
2024-02-08T14:38:11.058Z,26.09
2024-02-08T14:41:01.086Z,26.00
2024-02-08T14:43:54.690Z,26.09
2024-02-08T14:46:43.465Z,25.99
2024-02-08T14:49:31.899Z,26.07
2024-02-08T14:52:26.073Z,25.97
2024-02-08T14:55:22.498Z,25.99
2024-02-08T14:58:31.360Z,25.99
2024-02-08T15:01:39.038Z,25.97
2024-02-08T15:04:27.417Z,26.02
2024-02-08T15:07:33.538Z,26.08
2024-02-08T15:10:43.936Z,26.04
2024-02-08T15:13:47.152Z,26.03
2024-02-08T15:16:35.409Z,26.15
2024-02-08T15:19:27.727Z,25.96
2024-02-08T15:22:28.733Z,26.13
2024-02-08T15:25:19.085Z,26.04
2024-02-08T15:28:26.877Z,26.13
2024-02-08T15:31:37.489Z,26.09
2024-02-08T15:34:44.022Z,25.94
2024-02-08T15:37:43.240Z,25.88
2024-02-08T15:40:32.604Z,26.06
2024-02-08T15:43:20.813Z,26.14
2024-02-08T15:46:12.077Z,26.21
2024-02-08T15:49:01.564Z,25.99
2024-02-08T15:51:51.068Z,25.96
2024-02-08T15:54:39.764Z,26.05
2024-02-08T15:57:31.457Z,25.87
2024-02-08T16:00:37.781Z,26.03
2024-02-08T16:03:27.401Z,26.09
2024-02-08T16:06:33.892Z,26.44
2024-02-08T16:09:28.616Z,25.96
2024-02-08T16:12:20.362Z,26.05
2024-02-08T16:15:18.740Z,26.30
2024-02-08T16:18:23.997Z,25.91
2024-02-08T16:21:17.858Z,25.99
2024-02-08T16:24:14.837Z,26.07
2024-02-08T16:27:08.648Z,26.16
2024-02-08T16:30:09.549Z,26.13
2024-02-08T16:32:57.864Z,26.17
2024-02-08T16:36:00.643Z,26.07
2024-02-08T16:38:59.296Z,26.20
2024-02-08T16:41:49.946Z,25.96
2024-02-08T16:44:52.296Z,26.13
2024-02-08T16:47:53.270Z,26.29
2024-02-08T16:50:47.355Z,26.16
2024-02-08T16:53:35.466Z,26.31
2024-02-08T16:56:23.408Z,26.17
2024-02-08T16:59:16.742Z,26.16
2024-02-08T17:02:13.638Z,26.30
2024-02-08T17:05:11.302Z,26.31
2024-02-08T17:08:05.431Z,26.07
2024-02-08T17:11:02.819Z,26.29
2024-02-08T17:13:53.649Z,26.17
2024-02-08T17:16:47.264Z,26.12
2024-02-08T17:19:35.134Z,26.12
2024-02-08T17:22:41.430Z,26.17
2024-02-08T17:25:42.968Z,26.12
2024-02-08T17:28:37.449Z,26.33
2024-02-08T17:31:35.085Z,26.23
2024-02-08T17:34:24.102Z,26.34
2024-02-08T17:37:18.967Z,26.33
2024-02-08T17:40:18.269Z,26.56
2024-02-08T17:43:10.542Z,26.16
2024-02-08T17:46:04.243Z,26.17
2024-02-08T17:48:55.846Z,26.22
2024-02-08T17:51:51.152Z,26.41
2024-02-08T17:54:53.391Z,26.32
2024-02-08T17:57:43.381Z,26.18
2024-02-08T18:00:31.140Z,26.23
2024-02-08T18:03:27.004Z,26.26
2024-02-08T18:06:18.256Z,26.23
2024-02-08T18:09:06.268Z,26.02
2024-02-08T18:11:54.071Z,26.13
2024-02-08T18:14:45.275Z,26.10
2024-02-08T18:17:35.676Z,25.88
2024-02-08T18:20:23.699Z,25.90
2024-02-08T18:23:11.346Z,26.08
2024-02-08T18:25:58.993Z,26.32
2024-02-08T18:28:47.029Z,26.29
2024-02-08T18:31:36.203Z,26.20
2024-02-08T18:34:24.315Z,26.19
2024-02-08T18:37:13.108Z,26.09
2024-02-08T18:40:00.992Z,26.11
2024-02-08T18:42:50.489Z,26.25
2024-02-08T18:45:38.941Z,26.19
2024-02-08T18:48:30.236Z,26.09
2024-02-08T18:51:17.981Z,25.97
2024-02-08T18:54:12.751Z,25.95
2024-02-08T18:57:04.755Z,26.01
2024-02-08T18:59:52.831Z,26.11
2024-02-08T19:02:40.887Z,26.21
2024-02-08T19:05:29.280Z,26.16
2024-02-08T19:08:20.000Z,26.17
2024-02-08T19:11:08.621Z,26.14
2024-02-08T19:13:58.283Z,26.09
2024-02-08T19:16:46.126Z,26.01
2024-02-08T19:19:35.527Z,25.96
2024-02-08T19:22:24.820Z,25.81
2024-02-08T19:25:15.496Z,25.89
2024-02-08T19:28:07.866Z,25.83
2024-02-08T19:30:57.176Z,25.97
2024-02-08T19:36:38.525Z,26.03
2024-02-08T19:39:29.179Z,26.07
2024-02-08T19:42:20.973Z,25.89
2024-02-08T19:45:24.348Z,25.96
2024-02-08T19:48:19.243Z,25.88
2024-02-08T19:51:10.401Z,25.93
2024-02-08T19:54:00.497Z,25.90
2024-02-08T19:56:49.206Z,26.17
2024-02-08T19:59:40.860Z,26.03
2024-02-08T20:02:29.287Z,26.09
2024-02-08T20:05:23.664Z,26.10
2024-02-08T20:08:12.163Z,26.11
2024-02-08T20:11:00.125Z,26.01
2024-02-08T20:13:48.882Z,25.86
2024-02-08T20:16:39.183Z,25.80
2024-02-08T20:19:28.450Z,25.82
2024-02-08T20:22:19.248Z,25.87
2024-02-08T20:25:07.118Z,26.04
2024-02-08T20:27:55.423Z,25.94
2024-02-08T20:30:50.301Z,26.12
2024-02-08T20:33:38.920Z,26.07
2024-02-08T20:36:26.747Z,26.05
2024-02-08T20:39:20.262Z,25.90
2024-02-08T20:42:13.684Z,26.06
2024-02-08T20:45:01.619Z,25.90
2024-02-08T20:47:50.365Z,26.02
2024-02-08T20:50:41.718Z,26.03
2024-02-08T20:53:31.649Z,25.92
2024-02-08T20:56:27.243Z,25.89
2024-02-08T20:59:15.744Z,25.79
2024-02-08T21:02:04.252Z,25.97
2024-02-08T21:04:52.642Z,26.11
2024-02-08T21:07:41.112Z,26.10
2024-02-08T21:10:29.828Z,26.07
2024-02-08T21:13:18.689Z,25.98
2024-02-08T21:16:06.970Z,25.88
2024-02-08T21:18:54.699Z,25.88
2024-02-08T21:21:42.777Z,26.02
2024-02-08T21:24:31.340Z,25.99
2024-02-08T21:27:21.529Z,25.91
2024-02-08T21:30:12.721Z,25.89
2024-02-08T21:33:00.441Z,25.95
2024-02-08T21:35:48.194Z,26.03
2024-02-08T21:38:36.166Z,25.98
2024-02-08T21:41:23.911Z,26.06
2024-02-08T21:44:11.645Z,26.00
2024-02-08T21:46:59.844Z,25.83
2024-02-08T21:49:48.225Z,25.88
2024-02-08T21:52:39.139Z,25.94
2024-02-08T21:55:26.858Z,25.96
2024-02-08T21:58:14.802Z,25.94
2024-02-08T22:04:09.320Z,25.78
2024-02-08T22:06:57.403Z,25.78
2024-02-08T22:09:52.619Z,26.02
2024-02-08T22:12:46.639Z,26.15
2024-02-08T22:15:34.975Z,25.98
2024-02-08T22:18:25.474Z,26.09
2024-02-08T22:21:19.427Z,26.03
2024-02-08T22:24:09.528Z,26.20
2024-02-08T22:26:59.196Z,26.14
2024-02-08T22:29:46.987Z,26.31
2024-02-08T22:32:37.050Z,26.25
2024-02-08T22:35:24.855Z,26.28
2024-02-08T22:38:13.607Z,26.26
2024-02-08T22:41:01.713Z,26.01
2024-02-08T22:43:49.446Z,25.98
2024-02-08T22:46:37.623Z,26.13
2024-02-08T22:49:26.629Z,26.08
2024-02-08T22:52:14.790Z,26.12
2024-02-08T22:55:04.628Z,25.99
2024-02-08T22:57:56.962Z,26.10
2024-02-08T23:00:50.947Z,26.19
2024-02-08T23:03:38.704Z,26.07
2024-02-08T23:06:32.032Z,26.26
2024-02-08T23:09:21.300Z,26.52
2024-02-08T23:12:12.016Z,26.04
2024-02-08T23:14:59.736Z,26.03
2024-02-08T23:18:05.911Z,25.81
2024-02-08T23:20:55.035Z,25.86
2024-02-08T23:23:42.942Z,25.71
2024-02-08T23:26:30.704Z,25.72
2024-02-08T23:29:19.606Z,26.04
2024-02-08T23:32:11.147Z,25.83
2024-02-08T23:34:59.052Z,25.94
2024-02-08T23:37:47.624Z,25.86
2024-02-08T23:40:35.482Z,25.87
2024-02-08T23:43:23.330Z,25.73
2024-02-08T23:46:10.990Z,25.64
2024-02-08T23:48:59.092Z,25.60
2024-02-08T23:51:48.803Z,25.61
2024-02-08T23:54:40.756Z,25.58
2024-02-08T23:57:30.426Z,25.51
